Time;durP1;ratioP1;P1;durP2;ratioP2;P2;SDS_P1;SDS_P2;PMS_P1;PMS_P2;Temp;Humidity;BMP_temperature;BMP_pressure;BME280_temperature;BME280_humidity;BME280_pressure;Samples;Min_cycle;Max_cycle;Signal;HPM_P1;HPM_P2
2024/01/17 00:00:06;;;;;;;23.13;12.60;;;;;;;-1.28;100.00;100173.00;6085616;19;20522;-73
2024/01/17 00:02:11;;;;;;;21.02;11.48;;;;;;;-1.31;100.00;100167.88;6083059;19;20018;-71
2024/01/17 00:04:16;;;;;;;25.92;14.82;;;;;;;-1.35;100.00;100169.56;6084838;19;19999;-71
2024/01/17 00:06:21;;;;;;;27.33;15.13;;;;;;;-1.26;100.00;100160.97;6084673;19;20011;-73
2024/01/17 00:08:26;;;;;;;20.00;10.52;;;;;;;-1.23;100.00;100160.13;6085189;19;20025;-74
2024/01/17 00:10:31;;;;;;;22.30;12.38;;;;;;;-1.26;100.00;100149.78;6082224;19;20033;-73
2024/01/17 00:12:37;;;;;;;39.45;15.32;;;;;;;-1.34;100.00;100147.25;6087580;19;20013;-73
2024/01/17 00:14:42;;;;;;;21.05;10.48;;;;;;;-1.35;100.00;100142.94;6089359;19;20011;-74
2024/01/17 00:16:47;;;;;;;29.60;10.55;;;;;;;-1.42;100.00;100147.28;6083924;19;20010;-72
2024/01/17 00:18:52;;;;;;;23.17;11.10;;;;;;;-1.42;100.00;100149.84;6080250;19;20438;-72
2024/01/17 00:20:57;;;;;;;18.27;10.55;;;;;;;-1.38;100.00;100141.25;6086188;19;20056;-74
2024/01/17 00:23:02;;;;;;;27.17;14.18;;;;;;;-1.31;100.00;100136.09;6086771;19;20010;-74
2024/01/17 00:25:08;;;;;;;20.52;12.05;;;;;;;-1.40;100.00;100131.78;6083353;19;20018;-74
2024/01/17 00:27:14;;;;;;;20.20;11.38;;;;;;;-1.48;100.00;100128.38;6082558;19;20024;-73
2024/01/17 00:29:16;;;;;;;25.13;11.55;;;;;;;-1.43;100.00;100132.66;6087985;19;20025;-73
2024/01/17 00:31:22;;;;;;;26.65;12.77;;;;;;;-1.40;100.00;100131.78;6086299;19;20017;-75
2024/01/17 00:33:30;;;;;;;20.35;11.00;;;;;;;-1.45;100.00;100123.22;6085211;19;20348;-74
2024/01/17 00:35:36;;;;;;;26.30;12.60;;;;;;;-1.52;100.00;100117.25;6086063;19;20880;-74
2024/01/17 00:37:41;;;;;;;20.92;9.82;;;;;;;-1.53;100.00;100112.09;6087728;19;20086;-72
2024/01/17 00:39:46;;;;;;;22.77;12.57;;;;;;;-1.53;100.00;100118.09;6083117;19;20006;-72
2024/01/17 00:41:51;;;;;;;14.18;9.50;;;;;;;-1.51;100.00;100108.63;6082224;19;20527;-73
2024/01/17 00:43:56;;;;;;;20.80;11.60;;;;;;;-1.52;100.00;100114.66;6084183;19;20007;-73
2024/01/17 00:46:04;;;;;;;28.67;11.73;;;;;;;-1.48;100.00;100108.63;6084025;19;20135;-72
2024/01/17 00:48:09;;;;;;;16.48;10.38;;;;;;;-1.48;100.00;100102.63;6083199;19;20013;-73
2024/01/17 00:50:14;;;;;;;18.48;9.95;;;;;;;-1.59;100.00;100112.97;6085605;19;20087;-75
2024/01/17 00:52:19;;;;;;;17.88;11.27;;;;;;;-1.59;100.00;100106.09;6085724;19;20014;-73
2024/01/17 00:54:25;;;;;;;14.98;9.43;;;;;;;-1.63;100.00;100096.66;6077479;19;20577;-73
2024/01/17 00:56:32;;;;;;;17.92;9.65;;;;;;;-1.65;100.00;100095.81;6080013;19;20042;-73
2024/01/17 00:58:37;;;;;;;21.13;11.00;;;;;;;-1.66;100.00;100093.22;6088102;19;20360;-74
2024/01/17 01:00:42;;;;;;;17.35;10.77;;;;;;;-1.61;100.00;100091.50;6082158;19;20015;-74
2024/01/17 01:02:51;;;;;;;25.67;11.93;;;;;;;-1.66;100.00;100088.06;6083491;19;20450;-73
2024/01/17 01:04:56;;;;;;;18.48;10.43;;;;;;;-1.72;100.00;100078.66;6085654;19;20086;-73
2024/01/17 01:07:01;;;;;;;18.50;9.85;;;;;;;-1.80;100.00;100076.09;6086810;19;20035;-73
2024/01/17 01:09:06;;;;;;;19.67;9.32;;;;;;;-1.78;100.00;100076.09;6081755;19;20348;-73
2024/01/17 01:11:11;;;;;;;18.38;9.38;;;;;;;-1.77;100.00;100078.66;6084468;19;20010;-73
2024/01/17 01:13:18;;;;;;;17.20;9.18;;;;;;;-1.82;100.00;100076.94;6076918;19;20236;-74
2024/01/17 01:15:23;;;;;;;21.38;10.32;;;;;;;-1.87;100.00;100076.97;6083166;19;20443;-74
2024/01/17 01:17:28;;;;;;;15.02;9.90;;;;;;;-1.91;100.00;100072.69;6079407;19;20011;-73
2024/01/17 01:19:33;;;;;;;17.45;9.00;;;;;;;-1.88;100.00;100077.81;6083752;19;20109;-75
2024/01/17 01:21:38;;;;;;;17.67;8.85;;;;;;;-1.95;100.00;100070.13;6086035;19;20353;-75
2024/01/17 01:23:46;;;;;;;20.80;10.50;;;;;;;-1.94;100.00;100074.44;6082916;19;20031;-75
2024/01/17 01:25:51;;;;;;;15.60;9.13;;;;;;;-1.94;100.00;100072.69;6082814;19;20245;-75
2024/01/17 01:27:56;;;;;;;18.70;11.30;;;;;;;-2.00;100.00;100065.84;6087003;19;20018;-75
2024/01/17 01:30:01;;;;;;;19.45;12.90;;;;;;;-2.04;100.00;100063.28;6081982;19;20093;-74
2024/01/17 01:32:07;;;;;;;19.45;10.10;;;;;;;-2.05;100.00;100059.84;6081836;19;20009;-73
2024/01/17 01:34:12;;;;;;;14.55;9.68;;;;;;;-2.00;100.00;100054.69;6083941;19;20018;-75
2024/01/17 01:36:21;;;;;;;15.23;9.32;;;;;;;-2.02;100.00;100051.25;6085329;19;20033;-75
2024/01/17 01:38:26;;;;;;;13.75;9.02;;;;;;;-1.95;100.00;100050.38;6082799;19;20042;-73
2024/01/17 01:40:31;;;;;;;16.90;9.82;;;;;;;-1.99;100.00;100051.25;6082605;19;20526;-75
2024/01/17 01:42:37;;;;;;;17.58;9.38;;;;;;;-1.99;100.00;100046.09;6084269;19;20006;-75
2024/01/17 01:44:42;;;;;;;21.65;10.30;;;;;;;-2.03;100.00;100050.41;6083584;19;20002;-75
2024/01/17 01:46:47;;;;;;;17.45;10.20;;;;;;;-1.95;100.00;100045.22;6082452;19;20074;-73
2024/01/17 01:48:52;;;;;;;19.60;9.88;;;;;;;-1.89;100.00;100041.81;6081457;19;20010;-75
2024/01/17 01:50:56;;;;;;;19.80;11.05;;;;;;;-1.94;100.00;100040.94;6085906;19;20006;-72
2024/01/17 01:53:03;;;;;;;19.75;9.35;;;;;;;-1.95;100.00;100037.50;6080543;19;20217;-73
2024/01/17 01:55:10;;;;;;;15.45;9.98;;;;;;;-1.98;100.00;100032.34;6080027;19;20070;-73
2024/01/17 01:57:19;;;;;;;26.50;12.80;;;;;;;-1.99;100.00;100034.09;6082740;19;20014;-73
2024/01/17 01:59:24;;;;;;;17.85;10.93;;;;;;;-2.00;100.00;100032.38;6082407;19;20431;-73
2024/01/17 02:01:32;;;;;;;22.83;11.23;;;;;;;-1.98;100.00;100029.78;6076090;19;20463;-74
2024/01/17 02:03:38;;;;;;;16.15;10.85;;;;;;;-1.96;100.00;100024.66;6081271;19;20514;-72
2024/01/17 02:05:44;;;;;;;17.08;9.55;;;;;;;-1.98;100.00;100014.34;6083108;19;20019;-73
2024/01/17 02:07:51;;;;;;;21.45;11.52;;;;;;;-1.98;100.00;100014.34;6083639;19;22408;-74
2024/01/17 02:09:57;;;;;;;19.25;11.48;;;;;;;-1.98;100.00;100009.19;6080407;19;20024;-73
2024/01/17 02:12:02;;;;;;;18.70;10.13;;;;;;;-1.98;100.00;100010.03;6083693;19;20013;-73
2024/01/17 02:14:12;;;;;;;19.15;11.13;;;;;;;-2.00;100.00;100000.63;6083283;19;20022;-73
2024/01/17 02:16:18;;;;;;;17.35;10.85;;;;;;;-2.04;100.00;100001.50;6081964;19;20007;-72
2024/01/17 02:18:23;;;;;;;22.17;11.20;;;;;;;-2.02;100.00;99992.91;6076201;19;20566;-73
2024/01/17 02:20:28;;;;;;;13.00;10.40;;;;;;;-1.98;100.00;99993.75;6083284;19;20006;-73
2024/01/17 02:22:33;;;;;;;17.83;9.98;;;;;;;-2.03;100.00;99991.22;6085023;19;20013;-73
2024/01/17 02:24:41;;;;;;;15.98;11.13;;;;;;;-2.03;100.00;99985.19;6081055;19;20403;-72
2024/01/17 02:26:46;;;;;;;15.73;9.90;;;;;;;-2.06;100.00;99985.19;6081987;19;20534;-73
2024/01/17 02:28:51;;;;;;;19.23;9.45;;;;;;;-2.09;100.00;99968.03;6086084;19;20504;-72
2024/01/17 02:30:58;;;;;;;22.63;10.18;;;;;;;-2.05;100.00;99966.31;6087026;19;20443;-73
2024/01/17 02:33:01;;;;;;;28.83;12.45;;;;;;;-2.04;100.00;99976.59;6087034;19;20006;-73
2024/01/17 02:35:08;;;;;;;18.75;11.23;;;;;;;-2.00;100.00;99969.75;6085404;19;20007;-73
2024/01/17 02:37:16;;;;;;;19.02;10.45;;;;;;;-1.94;100.00;99962.00;6090804;19;20027;-73
2024/01/17 02:39:23;;;;;;;13.23;10.05;;;;;;;-1.98;100.00;99962.84;6086602;19;20725;-73
2024/01/17 02:41:32;;;;;;;17.77;11.10;;;;;;;-2.07;100.00;99965.47;6088422;19;20109;-74
2024/01/17 02:43:37;;;;;;;16.15;10.40;;;;;;;-2.08;100.00;99956.91;6090496;19;20394;-74
2024/01/17 02:45:42;;;;;;;19.23;8.40;;;;;;;-2.10;100.00;99957.75;6086491;19;20003;-72
2024/01/17 02:47:47;;;;;;;14.80;8.65;;;;;;;-2.05;100.00;99950.88;6087583;19;20022;-73
2024/01/17 02:49:52;;;;;;;18.08;11.18;;;;;;;-2.01;100.00;99952.56;6088209;19;20022;-72
2024/01/17 02:51:59;;;;;;;17.05;9.75;;;;;;;-2.07;100.00;99947.44;6089652;19;20350;-74
2024/01/17 02:54:05;;;;;;;13.35;9.05;;;;;;;-2.09;100.00;99946.59;6079427;19;20010;-75
2024/01/17 02:56:14;;;;;;;16.33;8.82;;;;;;;-2.04;100.00;99937.13;6085635;19;20007;-73
2024/01/17 02:58:21;;;;;;;17.10;12.00;;;;;;;-2.01;100.00;99937.97;6088807;19;20003;-74
2024/01/17 03:00:26;;;;;;;26.00;10.40;;;;;;;-1.99;100.00;99933.69;6088231;19;20042;-74
2024/01/17 03:02:31;;;;;;;14.95;10.10;;;;;;;-1.96;100.00;99927.66;6082877;19;20006;-74
2024/01/17 03:04:36;;;;;;;17.90;9.00;;;;;;;-2.01;100.00;99926.81;6089380;19;20733;-74
2024/01/17 03:06:42;;;;;;;16.92;10.20;;;;;;;-2.03;100.00;99919.13;6082095;19;20016;-73
2024/01/17 03:08:48;;;;;;;22.40;8.60;;;;;;;-1.96;100.00;99924.25;6085898;19;20010;-74
2024/01/17 03:10:50;;;;;;;21.73;10.85;;;;;;;-1.96;100.00;99919.94;6084869;19;20003;-73
2024/01/17 03:12:55;;;;;;;14.50;8.27;;;;;;;-1.88;100.00;99920.75;6086882;19;20017;-75
2024/01/17 03:15:03;;;;;;;14.38;8.55;;;;;;;-1.96;100.00;99911.38;6086267;19;20022;-73
2024/01/17 03:17:08;;;;;;;15.27;8.52;;;;;;;-2.02;100.00;99909.69;6080830;19;20023;-75
2024/01/17 03:19:16;;;;;;;17.40;11.23;;;;;;;-2.06;100.00;99902.81;6085873;19;20006;-75
2024/01/17 03:21:19;;;;;;;16.15;10.02;;;;;;;-2.02;100.00;99894.22;6088839;19;20359;-74
2024/01/17 03:23:24;;;;;;;16.52;9.18;;;;;;;-2.09;100.00;99893.38;6086822;19;20047;-75
2024/01/17 03:25:26;;;;;;;16.80;9.70;;;;;;;-2.09;100.00;99889.97;6084448;19;20359;-75
2024/01/17 03:27:31;;;;;;;14.18;9.80;;;;;;;-2.10;100.00;99878.81;6089002;19;20539;-75
2024/01/17 03:29:36;;;;;;;28.95;10.68;;;;;;;-2.11;100.00;99877.09;6089090;19;20325;-74
2024/01/17 03:31:44;;;;;;;21.58;8.40;;;;;;;-2.03;100.00;99872.78;6086009;19;20007;-76
2024/01/17 03:33:49;;;;;;;18.45;9.65;;;;;;;-2.08;100.00;99873.66;6088347;19;20013;-74
2024/01/17 03:35:54;;;;;;;16.65;10.18;;;;;;;-2.08;100.00;99868.50;6081897;19;20035;-75
2024/01/17 03:37:59;;;;;;;20.27;9.85;;;;;;;-2.12;100.00;99861.66;6084401;19;20378;-72
2024/01/17 03:40:02;;;;;;;22.40;12.00;;;;;;;-2.10;100.00;99854.81;6083685;19;20050;-75
2024/01/17 03:42:07;;;;;;;9.98;7.68;;;;;;;-2.08;100.00;99850.47;6086014;19;20007;-71
2024/01/17 03:44:09;;;;;;;17.25;9.48;;;;;;;-2.05;100.00;99853.06;6086516;19;20010;-75
2024/01/17 03:46:14;;;;;;;18.50;10.35;;;;;;;-2.11;100.00;99848.78;6084902;19;20027;-72
2024/01/17 03:48:22;;;;;;;15.68;9.43;;;;;;;-2.12;100.00;99838.50;6086220;19;20026;-74
2024/01/17 03:50:30;;;;;;;13.38;8.50;;;;;;;-2.12;100.00;99826.47;6085436;19;20082;-74
2024/01/17 03:52:33;;;;;;;15.55;9.98;;;;;;;-2.02;100.00;99827.31;6085028;19;20401;-73
2024/01/17 03:54:38;;;;;;;25.00;10.23;;;;;;;-2.07;100.00;99818.75;6082416;19;20373;-73
2024/01/17 03:56:41;;;;;;;20.90;9.63;;;;;;;-2.07;100.00;99808.44;6089610;19;20014;-72
2024/01/17 03:58:46;;;;;;;24.20;10.13;;;;;;;-2.12;100.00;99802.47;6088682;19;20009;-73
2024/01/17 04:00:51;;;;;;;14.52;9.27;;;;;;;-2.11;100.00;99804.16;6086233;19;20574;-72
2024/01/17 04:02:56;;;;;;;17.52;10.65;;;;;;;-2.08;100.00;99788.72;6082304;19;20109;-72
2024/01/17 04:05:04;;;;;;;15.18;8.55;;;;;;;-2.10;100.00;99780.16;6083217;19;20376;-72
2024/01/17 04:07:09;;;;;;;15.75;8.65;;;;;;;-2.05;100.00;99775.84;6085757;19;20015;-72
2024/01/17 04:09:15;;;;;;;14.15;8.93;;;;;;;-2.09;100.00;99771.56;6085364;19;20034;-75
2024/01/17 04:11:20;;;;;;;18.98;8.05;;;;;;;-2.10;100.00;99763.00;6087481;19;20006;-73
2024/01/17 04:13:25;;;;;;;12.98;7.68;;;;;;;-2.11;100.00;99758.69;6087918;19;20450;-73
2024/01/17 04:15:30;;;;;;;17.73;9.27;;;;;;;-2.08;100.00;99750.97;6087126;19;20535;-73
2024/01/17 04:17:35;;;;;;;11.45;7.78;;;;;;;-2.04;100.00;99752.66;6081601;19;20031;-72
2024/01/17 04:19:43;;;;;;;17.17;9.68;;;;;;;-2.06;100.00;99741.50;6086720;19;20014;-73
2024/01/17 04:21:56;;;;;;;19.38;11.00;;;;;;;-2.09;100.00;99728.66;6085608;19;20019;-74
2024/01/17 04:24:01;;;;;;;;;;;;;;;-2.09;100.00;99723.50;6080076;19;20090;-71
2024/01/17 04:26:06;;;;;;;18.95;9.35;;;;;;;-2.09;100.00;99723.50;6085092;19;19974;-74
2024/01/17 04:28:12;;;;;;;27.80;7.97;;;;;;;-2.04;100.00;99720.91;6085658;19;20011;-75
2024/01/17 04:30:17;;;;;;;15.25;9.77;;;;;;;-2.04;100.00;99715.75;6085757;19;20007;-75
2024/01/17 04:32:22;;;;;;;24.88;9.93;;;;;;;-2.02;100.00;99719.19;6085018;19;20084;-75
2024/01/17 04:34:27;;;;;;;12.05;7.50;;;;;;;-2.01;100.00;99720.88;6086048;19;20047;-75
2024/01/17 04:36:33;;;;;;;21.90;9.05;;;;;;;-2.02;100.00;99721.75;6085983;19;20022;-73
2024/01/17 04:38:41;;;;;;;21.65;9.10;;;;;;;-2.07;100.00;99708.06;6078434;19;20015;-76
2024/01/17 04:40:46;;;;;;;21.30;10.20;;;;;;;-2.06;100.00;99704.63;6082314;19;20558;-76
2024/01/17 04:42:51;;;;;;;13.55;7.90;;;;;;;-2.07;100.00;99710.63;6086971;19;20038;-73
2024/01/17 04:44:56;;;;;;;17.42;8.30;;;;;;;-2.05;100.00;99703.78;6085052;19;20010;-75
2024/01/17 04:47:01;;;;;;;16.45;9.55;;;;;;;-2.00;100.00;99695.13;6083636;19;20447;-73
2024/01/17 04:49:07;;;;;;;14.77;8.48;;;;;;;-2.01;100.00;99698.56;6085459;19;20011;-73
2024/01/17 04:51:11;;;;;;;10.05;7.30;;;;;;;-2.02;100.00;99685.72;6087048;19;20023;-74
2024/01/17 04:53:17;;;;;;;14.32;7.20;;;;;;;-1.99;100.00;99677.97;6082001;19;20010;-73
2024/01/17 04:55:25;;;;;;;13.73;7.60;;;;;;;-2.04;100.00;99677.16;6085629;19;20937;-74
2024/01/17 04:57:30;;;;;;;15.60;8.32;;;;;;;-2.08;100.00;99663.47;6084050;19;20733;-77
2024/01/17 04:59:35;;;;;;;16.92;7.97;;;;;;;-2.03;100.00;99665.97;6084473;19;20471;-73
2024/01/17 05:01:40;;;;;;;8.55;5.93;;;;;;;-1.98;100.00;99653.91;6079931;19;20013;-75
2024/01/17 05:03:45;;;;;;;12.35;8.35;;;;;;;-2.01;100.00;99651.38;6081910;19;20480;-75
2024/01/17 05:05:50;;;;;;;8.82;6.82;;;;;;;-2.00;100.00;99643.66;6085826;19;20027;-75
2024/01/17 05:07:55;;;;;;;20.83;8.45;;;;;;;-1.98;100.00;99633.31;6085352;19;20447;-75
2024/01/17 05:10:00;;;;;;;13.60;7.55;;;;;;;-1.93;100.00;99636.72;6082968;19;20002;-75
2024/01/17 05:12:09;;;;;;;15.27;8.80;;;;;;;-1.99;100.00;99627.34;6083476;19;20034;-74
2024/01/17 05:14:16;;;;;;;10.85;6.93;;;;;;;-1.99;100.00;99629.91;6083739;19;20086;-74
2024/01/17 05:16:21;;;;;;;11.95;5.25;;;;;;;-2.02;100.00;99637.66;6074617;19;20058;-74
2024/01/17 05:18:26;;;;;;;10.30;7.63;;;;;;;-2.04;100.00;99633.38;6081752;19;20032;-74
2024/01/17 05:20:31;;;;;;;11.80;7.75;;;;;;;-2.09;100.00;99630.84;6084580;19;20042;-74
2024/01/17 05:22:39;;;;;;;11.82;7.63;;;;;;;-2.11;100.00;99629.16;6084156;19;20026;-73
2024/01/17 05:24:44;;;;;;;11.52;7.07;;;;;;;-2.11;100.00;99621.44;6081817;19;20003;-74
2024/01/17 05:26:50;;;;;;;17.95;6.70;;;;;;;-2.17;100.00;99613.78;6085643;19;20525;-73
2024/01/17 05:29:00;;;;;;;9.98;6.28;;;;;;;-2.15;100.00;99615.47;6085627;19;20027;-73
2024/01/17 05:31:06;;;;;;;8.77;6.40;;;;;;;-2.12;100.00;99610.28;6082104;19;20003;-72
2024/01/17 05:33:12;;;;;;;8.98;6.43;;;;;;;-2.15;100.00;99606.91;6076325;19;20010;-73
2024/01/17 05:35:14;;;;;;;15.48;7.75;;;;;;;-2.19;100.00;99607.78;6083277;19;20028;-73
2024/01/17 05:37:21;;;;;;;10.32;6.45;;;;;;;-2.19;100.00;99602.63;6084245;19;20011;-73
2024/01/17 05:39:26;;;;;;;15.00;8.68;;;;;;;-2.23;100.00;99594.94;6081917;19;20505;-74
2024/01/17 05:41:31;;;;;;;10.13;6.25;;;;;;;-2.26;100.00;99591.56;6085732;19;19998;-72
2024/01/17 05:43:37;;;;;;;17.10;6.72;;;;;;;-2.21;100.00;99590.66;6083990;19;20003;-73
2024/01/17 05:45:45;;;;;;;17.17;7.00;;;;;;;-2.25;100.00;99588.09;6080262;19;20003;-74
2024/01/17 05:47:50;;;;;;;14.40;6.68;;;;;;;-2.28;100.00;99585.56;6082232;19;20011;-74
2024/01/17 05:49:56;;;;;;;20.40;10.13;;;;;;;-2.26;100.00;99583.84;6084809;19;20011;-74
2024/01/17 05:52:02;;;;;;;18.35;7.53;;;;;;;-2.25;100.00;99580.38;6079896;19;20044;-72
2024/01/17 05:54:07;;;;;;;14.23;7.03;;;;;;;-2.23;100.00;99573.50;6076151;19;20014;-72
2024/01/17 05:56:13;;;;;;;17.15;8.40;;;;;;;-2.22;100.00;99572.63;6087265;19;20046;-72
2024/01/17 05:58:18;;;;;;;19.17;7.45;;;;;;;-2.27;100.00;99564.94;6085230;19;20051;-73
2024/01/17 06:00:23;;;;;;;8.60;6.28;;;;;;;-2.23;100.00;99560.66;6082432;19;20033;-73
2024/01/17 06:02:30;;;;;;;13.25;7.65;;;;;;;-2.26;100.00;99558.94;6082368;19;20033;-74
2024/01/17 06:04:33;;;;;;;9.77;6.38;;;;;;;-2.30;100.00;99554.69;6081997;19;20021;-73
2024/01/17 06:06:38;;;;;;;9.90;7.28;;;;;;;-2.32;100.00;99553.84;6080035;19;20011;-72
2024/01/17 06:08:43;;;;;;;11.05;7.60;;;;;;;-2.29;100.00;99548.69;6079985;19;20802;-72
2024/01/17 06:10:48;;;;;;;14.25;8.55;;;;;;;-2.28;100.00;99542.66;6079458;19;20122;-74
2024/01/17 06:12:53;;;;;;;13.30;7.53;;;;;;;-2.21;100.00;99543.47;6083502;19;20418;-73
2024/01/17 06:14:58;;;;;;;12.98;7.43;;;;;;;-2.19;100.00;99540.88;6080700;19;20454;-75
2024/01/17 06:17:01;;;;;;;15.23;8.05;;;;;;;-2.24;100.00;99541.78;6083693;19;20040;-75
2024/01/17 06:19:09;;;;;;;10.82;5.82;;;;;;;-2.29;100.00;99535.81;6083881;19;20019;-74
2024/01/17 06:21:14;;;;;;;10.30;6.55;;;;;;;-2.34;100.00;99537.59;6084013;19;20014;-74
2024/01/17 06:23:19;;;;;;;12.52;6.68;;;;;;;-2.33;100.00;99533.28;6079726;19;20019;-74
2024/01/17 06:25:24;;;;;;;13.13;7.25;;;;;;;-2.30;100.00;99531.53;6083739;19;20015;-74
2024/01/17 06:27:30;;;;;;;16.63;7.95;;;;;;;-2.36;100.00;99535.91;6080292;19;20009;-75
2024/01/17 06:29:35;;;;;;;17.20;6.55;;;;;;;-2.39;100.00;99533.34;6077538;19;20021;-73
2024/01/17 06:31:38;;;;;;;30.60;8.13;;;;;;;-2.45;100.00;99529.09;6080562;19;20485;-73
2024/01/17 06:33:43;;;;;;;14.18;7.78;;;;;;;-2.44;100.00;99535.97;6083572;19;20018;-74
2024/01/17 06:35:51;;;;;;;14.23;6.88;;;;;;;-2.43;100.00;99535.94;6083162;19;20015;-74
2024/01/17 06:37:54;;;;;;;14.18;7.70;;;;;;;-2.45;100.00;99529.97;6078577;19;20038;-73
2024/01/17 06:40:04;;;;;;;10.50;7.43;;;;;;;-2.48;100.00;99523.97;6082024;19;20787;-73
2024/01/17 06:42:09;;;;;;;10.55;5.75;;;;;;;-2.45;100.00;99523.94;6083462;19;20003;-72
2024/01/17 06:44:13;;;;;;;13.40;7.70;;;;;;;-2.43;100.00;99512.78;6081245;19;20010;-72
2024/01/17 06:46:18;;;;;;;15.73;9.15;;;;;;;-2.42;100.00;99505.94;6077148;19;20435;-73
2024/01/17 06:48:23;;;;;;;18.13;9.90;;;;;;;-2.39;100.00;99505.91;6081408;19;20699;-73
2024/01/17 06:50:30;;;;;;;20.63;7.47;;;;;;;-2.33;100.00;99510.13;6082829;19;20011;-72
2024/01/17 06:52:39;;;;;;;15.18;7.93;;;;;;;-2.30;100.00;99498.09;6077039;19;20024;-72
2024/01/17 06:54:41;;;;;;;14.60;6.28;;;;;;;-2.33;100.00;99498.13;6084456;19;20074;-73
2024/01/17 06:56:50;;;;;;;14.43;7.55;;;;;;;-2.37;100.00;99498.16;6081512;19;20039;-72
2024/01/17 06:58:58;;;;;;;14.27;6.35;;;;;;;-2.41;100.00;99488.78;6077462;19;20369;-74
2024/01/17 07:01:02;;;;;;;12.75;6.35;;;;;;;-2.51;100.00;99488.84;6081018;19;20003;-72
2024/01/17 07:03:07;;;;;;;12.48;6.57;;;;;;;-2.56;100.00;99485.47;6080012;19;20014;-72
2024/01/17 07:05:10;;;;;;;14.32;6.82;;;;;;;-2.55;100.00;99478.63;6083613;19;20849;-75
2024/01/17 07:07:15;;;;;;;;;;;;;;;-2.57;100.00;99477.78;6081815;19;20082;-71
2024/01/17 07:09:19;;;;;;;10.55;6.40;;;;;;;-2.54;100.00;99475.19;6080928;19;19966;-72
2024/01/17 07:11:25;;;;;;;14.05;6.30;;;;;;;-2.55;100.00;99471.75;6084916;19;20445;-74
2024/01/17 07:13:30;;;;;;;13.48;9.20;;;;;;;-2.51;100.00;99470.84;6082413;19;20025;-74
2024/01/17 07:15:35;;;;;;;15.95;9.63;;;;;;;-2.51;100.00;99472.56;6083333;19;20014;-74
2024/01/17 07:17:42;;;;;;;13.77;7.55;;;;;;;-2.51;100.00;99473.41;6088181;19;20007;-74
2024/01/17 07:19:48;;;;;;;16.83;6.45;;;;;;;-2.53;100.00;99464.00;6087343;19;20015;-73
2024/01/17 07:21:53;;;;;;;10.90;6.55;;;;;;;-2.51;100.00;99459.72;6085582;19;20013;-75
2024/01/17 07:23:58;;;;;;;11.50;8.05;;;;;;;-2.56;100.00;99459.75;6083273;19;20091;-73
2024/01/17 07:26:06;;;;;;;14.77;7.03;;;;;;;-2.55;100.00;99456.34;6089985;19;20010;-72
2024/01/17 07:28:09;;;;;;;11.90;6.57;;;;;;;-2.55;100.00;99451.19;6084459;19;20066;-73
2024/01/17 07:30:19;;;;;;;10.85;6.25;;;;;;;-2.61;100.00;99455.53;6086999;19;20462;-73
2024/01/17 07:32:25;;;;;;;13.55;5.75;;;;;;;-2.58;100.00;99455.47;6085876;19;20017;-74
2024/01/17 07:34:33;;;;;;;13.88;6.53;;;;;;;-2.62;100.00;99452.09;6085123;19;20019;-74
2024/01/17 07:36:39;;;;;;;9.85;6.32;;;;;;;-2.62;100.00;99451.25;6078778;19;20405;-73
2024/01/17 07:38:44;;;;;;;10.60;5.60;;;;;;;-2.62;100.00;99454.69;6077108;19;20512;-75
2024/01/17 07:40:49;;;;;;;10.43;5.80;;;;;;;-2.57;100.00;99449.50;6085752;19;20034;-72
2024/01/17 07:42:56;;;;;;;11.90;5.60;;;;;;;-2.58;100.00;99450.34;6082482;19;20129;-73
2024/01/17 07:45:02;;;;;;;15.40;7.32;;;;;;;-2.59;100.00;99449.50;6083241;19;20022;-75
2024/01/17 07:47:04;;;;;;;16.88;8.40;;;;;;;-2.57;100.00;99454.63;6085289;19;20039;-73
2024/01/17 07:49:10;;;;;;;9.82;5.65;;;;;;;-2.55;100.00;99447.78;6082655;19;20006;-74
2024/01/17 07:51:16;;;;;;;15.60;7.72;;;;;;;-2.50;100.00;99441.72;6082127;19;20014;-74
2024/01/17 07:53:21;;;;;;;14.85;7.88;;;;;;;-2.42;100.00;99436.50;6081116;19;20010;-72
2024/01/17 07:55:26;;;;;;;12.07;6.97;;;;;;;-2.36;100.00;99441.56;6088118;19;20091;-74
2024/01/17 07:57:34;;;;;;;14.85;7.38;;;;;;;-2.34;100.00;99436.38;6083940;19;20006;-73
2024/01/17 07:59:42;;;;;;;11.52;6.45;;;;;;;-2.25;100.00;99433.72;6080853;19;20092;-73
2024/01/17 08:01:48;;;;;;;12.13;7.63;;;;;;;-2.25;100.00;99433.72;6078260;19;20003;-75
2024/01/17 08:03:53;;;;;;;17.08;7.85;;;;;;;-2.27;100.00;99422.59;6084358;19;20514;-75
2024/01/17 08:05:58;;;;;;;17.90;8.88;;;;;;;-2.25;100.00;99418.28;6079956;19;20044;-73
2024/01/17 08:08:04;;;;;;;12.82;8.00;;;;;;;-2.22;100.00;99416.50;6084342;19;20345;-73
2024/01/17 08:10:10;;;;;;;13.55;7.32;;;;;;;-2.23;100.00;99407.09;6085659;19;20605;-76
2024/01/17 08:12:15;;;;;;;13.55;7.00;;;;;;;-2.23;100.00;99416.56;6083305;19;20007;-75
2024/01/17 08:14:20;;;;;;;15.38;6.95;;;;;;;-2.28;100.00;99403.72;6082824;19;20054;-74
2024/01/17 08:16:28;;;;;;;11.95;7.70;;;;;;;-2.18;100.00;99398.50;6083581;19;20479;-75
2024/01/17 08:18:36;;;;;;;13.60;7.28;;;;;;;-2.06;100.00;99395.75;5991706;19;2004667;-74
2024/01/17 08:20:43;;;;;;;15.55;6.90;;;;;;;-2.06;100.00;99393.16;6076714;19;20006;-74
2024/01/17 08:22:45;;;;;;;18.75;9.48;;;;;;;-2.02;100.00;99393.13;6078809;19;20006;-73
2024/01/17 08:24:50;;;;;;;17.63;10.90;;;;;;;-2.06;100.00;99388.03;6086305;19;20047;-73
2024/01/17 08:26:55;;;;;;;20.83;10.90;;;;;;;-2.09;100.00;99390.66;6080338;19;20027;-74
2024/01/17 08:29:01;;;;;;;28.77;11.45;;;;;;;-2.03;100.00;99394.00;6079573;19;20483;-74
2024/01/17 08:31:06;;;;;;;13.23;7.97;;;;;;;-2.00;100.00;99387.97;6085475;19;20010;-74
2024/01/17 08:33:11;;;;;;;20.15;10.07;;;;;;;-2.05;100.00;99384.59;6082215;19;20451;-75
2024/01/17 08:35:16;;;;;;;15.20;8.13;;;;;;;-2.07;100.00;99376.03;6082336;19;20009;-74
2024/01/17 08:37:21;;;;;;;21.83;8.15;;;;;;;-2.06;100.00;99386.31;6085027;19;20483;-74
2024/01/17 08:39:27;;;;;;;18.33;9.40;;;;;;;-1.90;100.00;99374.06;6086850;19;20018;-74
2024/01/17 08:41:34;;;;;;;14.48;7.43;;;;;;;-1.95;100.00;99377.59;6083850;19;20006;-74
2024/01/17 08:43:41;;;;;;;14.07;6.70;;;;;;;-1.96;100.00;99374.16;6082906;19;20002;-74
2024/01/17 08:45:46;;;;;;;23.25;9.82;;;;;;;-1.85;100.00;99371.44;6076526;19;20009;-74
2024/01/17 08:47:51;;;;;;;12.68;7.20;;;;;;;-1.78;100.00;99368.78;6089201;19;20014;-75
2024/01/17 08:50:00;;;;;;;11.23;8.73;;;;;;;-1.79;100.00;99367.09;6085701;19;20033;-75
2024/01/17 08:52:04;;;;;;;10.23;6.43;;;;;;;-1.85;100.00;99361.16;6083628;19;20003;-73
2024/01/17 08:54:10;;;;;;;19.17;8.45;;;;;;;-1.85;100.00;99366.28;6082287;19;20011;-76
2024/01/17 08:56:16;;;;;;;17.70;8.88;;;;;;;-1.83;100.00;99355.09;6086532;19;20023;-74
2024/01/17 08:58:21;;;;;;;11.60;8.20;;;;;;;-1.82;100.00;99361.09;6085086;19;20790;-72
2024/01/17 09:00:26;;;;;;;17.42;7.38;;;;;;;-1.83;100.00;99351.69;6086401;19;20011;-72
2024/01/17 09:02:31;;;;;;;15.82;8.20;;;;;;;-1.74;100.00;99353.28;6086554;19;20003;-73
2024/01/17 09:04:36;;;;;;;15.43;7.60;;;;;;;-1.86;100.00;99349.16;6086024;19;20021;-72
2024/01/17 09:06:44;;;;;;;16.73;8.60;;;;;;;-1.76;100.00;99343.00;6084063;19;20367;-73
2024/01/17 09:08:50;;;;;;;11.20;7.13;;;;;;;-1.72;100.00;99348.97;6085922;19;20006;-74
2024/01/17 09:10:52;;;;;;;16.80;8.35;;;;;;;-1.67;100.00;99339.44;6085383;19;20700;-72
2024/01/17 09:12:57;;;;;;;16.38;8.23;;;;;;;-1.58;100.00;99339.28;6080824;19;20056;-72
2024/01/17 09:15:03;;;;;;;14.52;7.65;;;;;;;-1.64;100.00;99331.66;6085588;19;20069;-75
2024/01/17 09:17:08;;;;;;;14.77;8.05;;;;;;;-1.65;100.00;99327.41;6086767;19;20141;-74
2024/01/17 09:19:15;;;;;;;15.18;7.93;;;;;;;-1.61;100.00;99334.19;6085397;19;20002;-73
2024/01/17 09:21:21;;;;;;;12.32;7.60;;;;;;;-1.62;100.00;99327.34;6083936;19;20054;-72
2024/01/17 09:23:29;;;;;;;15.35;7.88;;;;;;;-1.64;100.00;99329.94;6085566;19;20010;-72
2024/01/17 09:25:35;;;;;;;13.50;8.20;;;;;;;-1.53;100.00;99327.19;6086040;19;20018;-72
2024/01/17 09:27:40;;;;;;;12.75;8.25;;;;;;;-1.51;100.00;99329.75;6080633;19;20019;-74
2024/01/17 09:29:48;;;;;;;12.55;6.60;;;;;;;-1.50;100.00;99318.56;6083286;19;20007;-76
2024/01/17 09:31:53;;;;;;;11.68;7.30;;;;;;;-1.46;100.00;99318.50;6083844;19;20034;-78
2024/01/17 09:33:59;;;;;;;11.25;7.15;;;;;;;-1.51;100.00;99306.56;6076898;19;20081;-75